sensor_id;sensor_type;location;lat;lon;timestamp;temperature;humidity
23149;DHT22;11743;51.228;22.498;2024-01-15T00:00:20;0.10;99.90
23149;DHT22;11743;51.228;22.498;2024-01-15T00:00:42;0.10;99.90
23149;DHT22;11743;51.228;22.498;2024-01-15T00:01:04;0.10;99.90
23149;DHT22;11743;51.228;22.498;2024-01-15T00:01:26;0.10;99.90
23149;DHT22;11743;51.228;22.498;2024-01-15T00:01:48;0.10;99.90
23149;DHT22;11743;51.228;22.498;2024-01-15T00:02:10;0.10;99.90
23149;DHT22;11743;51.228;22.498;2024-01-15T00:02:31;0.00;99.90
23149;DHT22;11743;51.228;22.498;2024-01-15T00:02:53;0.10;99.90
23149;DHT22;11743;51.228;22.498;2024-01-15T00:03:15;0.00;99.90
23149;DHT22;11743;51.228;22.498;2024-01-15T00:03:37;0.00;99.90
23149;DHT22;11743;51.228;22.498;2024-01-15T00:03:59;0.00;99.90
23149;DHT22;11743;51.228;22.498;2024-01-15T00:04:22;0.00;99.90
23149;DHT22;11743;51.228;22.498;2024-01-15T00:04:44;0.00;99.90
23149;DHT22;11743;51.228;22.498;2024-01-15T00:05:05;0.00;99.90
23149;DHT22;11743;51.228;22.498;2024-01-15T00:05:27;0.00;99.90
23149;DHT22;11743;51.228;22.498;2024-01-15T00:05:49;0.00;99.90
23149;DHT22;11743;51.228;22.498;2024-01-15T00:06:11;0.00;99.90
23149;DHT22;11743;51.228;22.498;2024-01-15T00:06:33;0.00;99.90
23149;DHT22;11743;51.228;22.498;2024-01-15T00:06:55;0.00;99.90
23149;DHT22;11743;51.228;22.498;2024-01-15T00:07:17;0.00;99.90
23149;DHT22;11743;51.228;22.498;2024-01-15T00:07:39;0.00;99.90
23149;DHT22;11743;51.228;22.498;2024-01-15T00:08:01;0.00;99.90
23149;DHT22;11743;51.228;22.498;2024-01-15T00:08:23;0.00;99.90
23149;DHT22;11743;51.228;22.498;2024-01-15T00:08:44;0.00;99.90
23149;DHT22;11743;51.228;22.498;2024-01-15T00:09:06;0.00;99.90
23149;DHT22;11743;51.228;22.498;2024-01-15T00:09:28;0.10;99.90
23149;DHT22;11743;51.228;22.498;2024-01-15T00:09:53;0.00;99.90
23149;DHT22;11743;51.228;22.498;2024-01-15T00:10:14;0.00;99.90
23149;DHT22;11743;51.228;22.498;2024-01-15T00:10:36;0.00;99.90
23149;DHT22;11743;51.228;22.498;2024-01-15T00:10:58;0.00;99.90
23149;DHT22;11743;51.228;22.498;2024-01-15T00:11:20;0.00;99.90
23149;DHT22;11743;51.228;22.498;2024-01-15T00:11:45;0.00;99.90
23149;DHT22;11743;51.228;22.498;2024-01-15T00:12:07;0.00;99.90
23149;DHT22;11743;51.228;22.498;2024-01-15T00:12:29;0.00;99.90
23149;DHT22;11743;51.228;22.498;2024-01-15T00:12:51;0.00;99.90
23149;DHT22;11743;51.228;22.498;2024-01-15T00:13:16;0.00;99.90
23149;DHT22;11743;51.228;22.498;2024-01-15T00:13:37;0.00;99.90
23149;DHT22;11743;51.228;22.498;2024-01-15T00:13:59;0.00;99.90
23149;DHT22;11743;51.228;22.498;2024-01-15T00:14:21;0.00;99.90
23149;DHT22;11743;51.228;22.498;2024-01-15T00:14:43;0.00;99.90
23149;DHT22;11743;51.228;22.498;2024-01-15T00:15:05;0.00;99.90
23149;DHT22;11743;51.228;22.498;2024-01-15T00:15:27;0.00;99.90
23149;DHT22;11743;51.228;22.498;2024-01-15T00:15:50;0.00;99.90
23149;DHT22;11743;51.228;22.498;2024-01-15T00:16:12;0.00;99.90
23149;DHT22;11743;51.228;22.498;2024-01-15T00:16:34;0.00;99.90
23149;DHT22;11743;51.228;22.498;2024-01-15T00:16:55;0.00;99.90
23149;DHT22;11743;51.228;22.498;2024-01-15T00:17:17;0.00;99.90
23149;DHT22;11743;51.228;22.498;2024-01-15T00:17:39;0.00;99.90
23149;DHT22;11743;51.228;22.498;2024-01-15T00:18:01;0.00;99.90
23149;DHT22;11743;51.228;22.498;2024-01-15T00:18:23;0.00;99.90
23149;DHT22;11743;51.228;22.498;2024-01-15T00:18:45;0.20;99.90
23149;DHT22;11743;51.228;22.498;2024-01-15T00:19:07;0.00;99.90
23149;DHT22;11743;51.228;22.498;2024-01-15T00:19:29;0.00;99.90
23149;DHT22;11743;51.228;22.498;2024-01-15T00:19:54;0.00;99.90
23149;DHT22;11743;51.228;22.498;2024-01-15T00:20:16;0.00;99.90
23149;DHT22;11743;51.228;22.498;2024-01-15T00:20:37;0.00;99.90
23149;DHT22;11743;51.228;22.498;2024-01-15T00:20:59;0.00;99.90
23149;DHT22;11743;51.228;22.498;2024-01-15T00:21:21;0.00;99.90
23149;DHT22;11743;51.228;22.498;2024-01-15T00:21:44;0.00;99.90
23149;DHT22;11743;51.228;22.498;2024-01-15T00:22:06;0.00;99.90
23149;DHT22;11743;51.228;22.498;2024-01-15T00:22:27;0.00;99.90
23149;DHT22;11743;51.228;22.498;2024-01-15T00:22:49;0.20;99.90
23149;DHT22;11743;51.228;22.498;2024-01-15T00:23:11;0.00;99.90
23149;DHT22;11743;51.228;22.498;2024-01-15T00:23:33;0.00;99.90
23149;DHT22;11743;51.228;22.498;2024-01-15T00:23:55;0.00;99.90
23149;DHT22;11743;51.228;22.498;2024-01-15T00:24:17;0.00;99.90
23149;DHT22;11743;51.228;22.498;2024-01-15T00:24:39;0.00;99.90
23149;DHT22;11743;51.228;22.498;2024-01-15T00:25:01;0.00;99.90
23149;DHT22;11743;51.228;22.498;2024-01-15T00:25:23;0.00;99.90
23149;DHT22;11743;51.228;22.498;2024-01-15T00:25:45;0.00;99.90
23149;DHT22;11743;51.228;22.498;2024-01-15T00:26:07;0.00;99.90
23149;DHT22;11743;51.228;22.498;2024-01-15T00:26:31;0.00;99.90
23149;DHT22;11743;51.228;22.498;2024-01-15T00:26:53;0.00;99.90
23149;DHT22;11743;51.228;22.498;2024-01-15T00:27:18;0.00;99.90
23149;DHT22;11743;51.228;22.498;2024-01-15T00:27:39;0.00;99.90
23149;DHT22;11743;51.228;22.498;2024-01-15T00:28:01;0.00;99.90
23149;DHT22;11743;51.228;22.498;2024-01-15T00:28:23;0.00;99.90
23149;DHT22;11743;51.228;22.498;2024-01-15T00:28:45;0.00;99.90
23149;DHT22;11743;51.228;22.498;2024-01-15T00:29:07;0.00;99.90
23149;DHT22;11743;51.228;22.498;2024-01-15T00:29:29;0.00;99.90
23149;DHT22;11743;51.228;22.498;2024-01-15T00:29:51;0.00;99.90
23149;DHT22;11743;51.228;22.498;2024-01-15T00:30:13;0.00;99.90
23149;DHT22;11743;51.228;22.498;2024-01-15T00:30:35;0.00;99.90
23149;DHT22;11743;51.228;22.498;2024-01-15T00:30:57;0.00;99.90
23149;DHT22;11743;51.228;22.498;2024-01-15T00:31:19;0.00;99.90
23149;DHT22;11743;51.228;22.498;2024-01-15T00:31:41;0.00;99.90
23149;DHT22;11743;51.228;22.498;2024-01-15T00:32:03;0.00;99.90
23149;DHT22;11743;51.228;22.498;2024-01-15T00:32:25;0.00;99.90
23149;DHT22;11743;51.228;22.498;2024-01-15T00:32:47;0.00;99.90
23149;DHT22;11743;51.228;22.498;2024-01-15T00:33:09;0.00;99.90
23149;DHT22;11743;51.228;22.498;2024-01-15T00:33:34;0.00;99.90
23149;DHT22;11743;51.228;22.498;2024-01-15T00:33:56;0.00;99.90
23149;DHT22;11743;51.228;22.498;2024-01-15T00:34:19;0.00;99.90
23149;DHT22;11743;51.228;22.498;2024-01-15T00:34:41;0.00;99.90
23149;DHT22;11743;51.228;22.498;2024-01-15T00:35:03;0.00;99.00
23149;DHT22;11743;51.228;22.498;2024-01-15T00:35:25;0.00;92.80
23149;DHT22;11743;51.228;22.498;2024-01-15T00:35:47;1.90;92.30
23149;DHT22;11743;51.228;22.498;2024-01-15T00:36:08;0.00;91.30
23149;DHT22;11743;51.228;22.498;2024-01-15T00:36:30;-0.10;95.00
23149;DHT22;11743;51.228;22.498;2024-01-15T00:36:53;0.00;91.20
23149;DHT22;11743;51.228;22.498;2024-01-15T00:37:14;0.00;93.40
23149;DHT22;11743;51.228;22.498;2024-01-15T00:37:36;-0.10;84.10
23149;DHT22;11743;51.228;22.498;2024-01-15T00:37:58;0.00;82.20
23149;DHT22;11743;51.228;22.498;2024-01-15T00:38:20;-0.10;91.70
23149;DHT22;11743;51.228;22.498;2024-01-15T00:38:43;-0.10;98.40
23149;DHT22;11743;51.228;22.498;2024-01-15T00:39:05;-0.10;96.10
23149;DHT22;11743;51.228;22.498;2024-01-15T00:39:27;-0.10;99.90
23149;DHT22;11743;51.228;22.498;2024-01-15T00:39:49;-0.10;99.90
23149;DHT22;11743;51.228;22.498;2024-01-15T00:40:10;-0.10;99.90
23149;DHT22;11743;51.228;22.498;2024-01-15T00:40:32;-0.10;99.90
23149;DHT22;11743;51.228;22.498;2024-01-15T00:40:54;-0.10;99.90
23149;DHT22;11743;51.228;22.498;2024-01-15T00:41:16;-0.10;99.90
23149;DHT22;11743;51.228;22.498;2024-01-15T00:41:38;-0.10;99.90
23149;DHT22;11743;51.228;22.498;2024-01-15T00:42:00;-0.10;99.90
23149;DHT22;11743;51.228;22.498;2024-01-15T00:42:21;1.30;99.90
23149;DHT22;11743;51.228;22.498;2024-01-15T00:42:43;-0.10;99.90
23149;DHT22;11743;51.228;22.498;2024-01-15T00:43:05;-0.10;99.90
23149;DHT22;11743;51.228;22.498;2024-01-15T00:43:29;-0.20;99.90
23149;DHT22;11743;51.228;22.498;2024-01-15T00:43:51;-0.10;99.90
23149;DHT22;11743;51.228;22.498;2024-01-15T00:44:12;-0.10;99.90
23149;DHT22;11743;51.228;22.498;2024-01-15T00:44:34;0.10;99.90
23149;DHT22;11743;51.228;22.498;2024-01-15T00:44:56;-0.20;99.90
23149;DHT22;11743;51.228;22.498;2024-01-15T00:45:18;-0.10;99.90
23149;DHT22;11743;51.228;22.498;2024-01-15T00:45:39;-0.20;99.90
23149;DHT22;11743;51.228;22.498;2024-01-15T00:46:02;-0.20;99.90
23149;DHT22;11743;51.228;22.498;2024-01-15T00:46:24;-0.20;99.90
23149;DHT22;11743;51.228;22.498;2024-01-15T00:46:46;-0.20;99.90
23149;DHT22;11743;51.228;22.498;2024-01-15T00:47:08;-0.20;99.90
23149;DHT22;11743;51.228;22.498;2024-01-15T00:47:30;-0.20;99.90
23149;DHT22;11743;51.228;22.498;2024-01-15T00:47:52;-0.20;99.90
23149;DHT22;11743;51.228;22.498;2024-01-15T00:48:14;-0.20;99.90
23149;DHT22;11743;51.228;22.498;2024-01-15T00:48:36;-0.20;99.90
23149;DHT22;11743;51.228;22.498;2024-01-15T00:48:58;-0.20;99.90
23149;DHT22;11743;51.228;22.498;2024-01-15T00:49:20;-0.20;99.90
23149;DHT22;11743;51.228;22.498;2024-01-15T00:49:42;-0.20;99.90
23149;DHT22;11743;51.228;22.498;2024-01-15T00:50:05;-0.20;99.90
23149;DHT22;11743;51.228;22.498;2024-01-15T00:50:27;-0.20;99.90
23149;DHT22;11743;51.228;22.498;2024-01-15T00:50:48;-0.20;99.90
23149;DHT22;11743;51.228;22.498;2024-01-15T00:51:10;-0.20;99.90
23149;DHT22;11743;51.228;22.498;2024-01-15T00:51:32;-0.20;99.90
23149;DHT22;11743;51.228;22.498;2024-01-15T00:51:54;-0.20;99.90
23149;DHT22;11743;51.228;22.498;2024-01-15T00:52:15;-0.20;99.90
23149;DHT22;11743;51.228;22.498;2024-01-15T00:52:37;-0.20;99.90
23149;DHT22;11743;51.228;22.498;2024-01-15T00:52:59;-0.20;99.90
23149;DHT22;11743;51.228;22.498;2024-01-15T00:53:21;-0.20;99.90
23149;DHT22;11743;51.228;22.498;2024-01-15T00:53:43;-0.20;99.90
23149;DHT22;11743;51.228;22.498;2024-01-15T00:54:05;0.30;99.90
23149;DHT22;11743;51.228;22.498;2024-01-15T00:54:27;-0.20;99.90
23149;DHT22;11743;51.228;22.498;2024-01-15T00:54:49;-0.20;99.90
23149;DHT22;11743;51.228;22.498;2024-01-15T00:55:11;-0.20;99.90
23149;DHT22;11743;51.228;22.498;2024-01-15T00:55:33;0.10;99.90
23149;DHT22;11743;51.228;22.498;2024-01-15T00:55:54;-0.20;99.90
23149;DHT22;11743;51.228;22.498;2024-01-15T00:56:16;-0.20;99.90
23149;DHT22;11743;51.228;22.498;2024-01-15T00:56:38;-0.20;99.90
23149;DHT22;11743;51.228;22.498;2024-01-15T00:57:00;-0.20;99.90
23149;DHT22;11743;51.228;22.498;2024-01-15T00:57:22;-0.20;99.90
23149;DHT22;11743;51.228;22.498;2024-01-15T00:57:44;-0.20;99.90
23149;DHT22;11743;51.228;22.498;2024-01-15T00:58:06;-0.20;99.90
23149;DHT22;11743;51.228;22.498;2024-01-15T00:58:27;-0.20;99.90
23149;DHT22;11743;51.228;22.498;2024-01-15T00:58:49;-0.20;99.90
23149;DHT22;11743;51.228;22.498;2024-01-15T00:59:11;-0.20;99.90
23149;DHT22;11743;51.228;22.498;2024-01-15T00:59:36;-0.20;99.90
23149;DHT22;11743;51.228;22.498;2024-01-15T00:59:58;-0.20;99.90
23149;DHT22;11743;51.228;22.498;2024-01-15T01:00:22;-0.20;99.90
23149;DHT22;11743;51.228;22.498;2024-01-15T01:00:44;-0.20;99.90
23149;DHT22;11743;51.228;22.498;2024-01-15T01:01:06;-0.20;99.90
23149;DHT22;11743;51.228;22.498;2024-01-15T01:01:28;-0.20;99.90
23149;DHT22;11743;51.228;22.498;2024-01-15T01:01:50;-0.20;99.90
23149;DHT22;11743;51.228;22.498;2024-01-15T01:02:12;-0.20;99.90
23149;DHT22;11743;51.228;22.498;2024-01-15T01:02:34;-0.20;99.90
23149;DHT22;11743;51.228;22.498;2024-01-15T01:02:55;-0.20;99.90
23149;DHT22;11743;51.228;22.498;2024-01-15T01:03:17;-0.30;99.90
23149;DHT22;11743;51.228;22.498;2024-01-15T01:03:39;-0.20;99.90
23149;DHT22;11743;51.228;22.498;2024-01-15T01:04:01;-0.30;99.90
23149;DHT22;11743;51.228;22.498;2024-01-15T01:04:23;-0.30;99.90
23149;DHT22;11743;51.228;22.498;2024-01-15T01:04:45;-0.20;99.90
23149;DHT22;11743;51.228;22.498;2024-01-15T01:05:07;-0.30;99.90
23149;DHT22;11743;51.228;22.498;2024-01-15T01:05:29;-0.20;99.90
23149;DHT22;11743;51.228;22.498;2024-01-15T01:05:51;-0.30;99.90
23149;DHT22;11743;51.228;22.498;2024-01-15T01:06:13;-0.30;99.90
23149;DHT22;11743;51.228;22.498;2024-01-15T01:06:34;-0.30;99.90
23149;DHT22;11743;51.228;22.498;2024-01-15T01:06:56;-0.30;99.90
23149;DHT22;11743;51.228;22.498;2024-01-15T01:07:18;-0.30;99.90
23149;DHT22;11743;51.228;22.498;2024-01-15T01:07:41;-0.30;99.90
23149;DHT22;11743;51.228;22.498;2024-01-15T01:08:02;-0.30;99.90
23149;DHT22;11743;51.228;22.498;2024-01-15T01:08:24;-0.30;99.90
23149;DHT22;11743;51.228;22.498;2024-01-15T01:08:46;-0.30;99.90
23149;DHT22;11743;51.228;22.498;2024-01-15T01:09:08;-0.30;99.90
23149;DHT22;11743;51.228;22.498;2024-01-15T01:09:30;-0.30;99.90
23149;DHT22;11743;51.228;22.498;2024-01-15T01:09:52;-0.30;99.90
23149;DHT22;11743;51.228;22.498;2024-01-15T01:10:13;-0.20;99.90
23149;DHT22;11743;51.228;22.498;2024-01-15T01:10:35;-0.30;99.90
23149;DHT22;11743;51.228;22.498;2024-01-15T01:10:57;-0.30;99.90
23149;DHT22;11743;51.228;22.498;2024-01-15T01:11:19;-0.30;99.90
23149;DHT22;11743;51.228;22.498;2024-01-15T01:11:41;-0.30;1.00
23149;DHT22;11743;51.228;22.498;2024-01-15T01:12:03;-0.30;1.00
23149;DHT22;11743;51.228;22.498;2024-01-15T01:12:25;-0.30;1.00
23149;DHT22;11743;51.228;22.498;2024-01-15T01:12:46;-0.30;1.00
23149;DHT22;11743;51.228;22.498;2024-01-15T01:13:09;-0.30;1.00
23149;DHT22;11743;51.228;22.498;2024-01-15T01:13:31;-0.30;1.00
23149;DHT22;11743;51.228;22.498;2024-01-15T01:13:52;-0.30;1.00
23149;DHT22;11743;51.228;22.498;2024-01-15T01:14:14;-0.30;1.00
23149;DHT22;11743;51.228;22.498;2024-01-15T01:14:36;-0.30;1.00
23149;DHT22;11743;51.228;22.498;2024-01-15T01:14:58;-0.30;1.00
23149;DHT22;11743;51.228;22.498;2024-01-15T01:15:20;-0.30;1.00
23149;DHT22;11743;51.228;22.498;2024-01-15T01:15:43;-0.40;1.00
23149;DHT22;11743;51.228;22.498;2024-01-15T01:16:05;-0.30;1.00
23149;DHT22;11743;51.228;22.498;2024-01-15T01:16:26;-0.30;1.00
23149;DHT22;11743;51.228;22.498;2024-01-15T01:16:48;-0.30;1.00
23149;DHT22;11743;51.228;22.498;2024-01-15T01:17:10;-0.30;1.00
23149;DHT22;11743;51.228;22.498;2024-01-15T01:17:32;-0.30;1.00
23149;DHT22;11743;51.228;22.498;2024-01-15T01:17:54;0.40;1.00
23149;DHT22;11743;51.228;22.498;2024-01-15T01:18:16;-0.40;1.00
23149;DHT22;11743;51.228;22.498;2024-01-15T01:18:38;-0.30;1.00
23149;DHT22;11743;51.228;22.498;2024-01-15T01:19:00;-0.40;1.00
23149;DHT22;11743;51.228;22.498;2024-01-15T01:19:22;-0.40;1.00
23149;DHT22;11743;51.228;22.498;2024-01-15T01:19:45;-0.40;1.00
23149;DHT22;11743;51.228;22.498;2024-01-15T01:20:07;-0.40;1.00
23149;DHT22;11743;51.228;22.498;2024-01-15T01:20:31;-0.40;1.00
23149;DHT22;11743;51.228;22.498;2024-01-15T01:20:53;-0.40;1.00
23149;DHT22;11743;51.228;22.498;2024-01-15T01:21:15;-0.40;1.00
23149;DHT22;11743;51.228;22.498;2024-01-15T01:21:36;-0.40;1.00
23149;DHT22;11743;51.228;22.498;2024-01-15T01:21:58;-0.40;1.00
23149;DHT22;11743;51.228;22.498;2024-01-15T01:22:20;-0.40;1.00
23149;DHT22;11743;51.228;22.498;2024-01-15T01:22:42;-0.40;1.00
23149;DHT22;11743;51.228;22.498;2024-01-15T01:23:04;-0.40;1.00
23149;DHT22;11743;51.228;22.498;2024-01-15T01:23:26;-0.40;1.00
23149;DHT22;11743;51.228;22.498;2024-01-15T01:23:48;-0.40;1.00
23149;DHT22;11743;51.228;22.498;2024-01-15T01:24:10;-0.40;1.00
23149;DHT22;11743;51.228;22.498;2024-01-15T01:24:31;-0.30;1.00
23149;DHT22;11743;51.228;22.498;2024-01-15T01:24:53;-0.30;1.00
23149;DHT22;11743;51.228;22.498;2024-01-15T01:25:15;-0.40;1.00
23149;DHT22;11743;51.228;22.498;2024-01-15T01:25:37;-0.40;1.00
23149;DHT22;11743;51.228;22.498;2024-01-15T01:25:59;-0.40;1.00
23149;DHT22;11743;51.228;22.498;2024-01-15T01:26:21;-0.30;1.00
23149;DHT22;11743;51.228;22.498;2024-01-15T01:26:42;-0.40;1.00
23149;DHT22;11743;51.228;22.498;2024-01-15T01:27:04;-0.40;1.00
23149;DHT22;11743;51.228;22.498;2024-01-15T01:27:26;-0.40;1.00
23149;DHT22;11743;51.228;22.498;2024-01-15T01:27:48;-0.40;1.00
23149;DHT22;11743;51.228;22.498;2024-01-15T01:28:10;-0.40;1.00
23149;DHT22;11743;51.228;22.498;2024-01-15T01:28:32;0.00;1.00
23149;DHT22;11743;51.228;22.498;2024-01-15T01:28:54;-0.40;1.00
23149;DHT22;11743;51.228;22.498;2024-01-15T01:29:15;-0.40;1.00
23149;DHT22;11743;51.228;22.498;2024-01-15T01:29:37;-0.40;1.00
23149;DHT22;11743;51.228;22.498;2024-01-15T01:29:59;-0.40;1.00
23149;DHT22;11743;51.228;22.498;2024-01-15T01:30:21;-0.40;1.00
23149;DHT22;11743;51.228;22.498;2024-01-15T01:30:43;-0.40;1.00
23149;DHT22;11743;51.228;22.498;2024-01-15T01:31:05;-0.40;1.00
23149;DHT22;11743;51.228;22.498;2024-01-15T01:31:27;-0.40;1.00
23149;DHT22;11743;51.228;22.498;2024-01-15T01:31:49;-0.40;1.00
23149;DHT22;11743;51.228;22.498;2024-01-15T01:32:11;-0.40;1.00
23149;DHT22;11743;51.228;22.498;2024-01-15T01:32:33;-0.40;1.00
23149;DHT22;11743;51.228;22.498;2024-01-15T01:32:55;-0.40;1.00
23149;DHT22;11743;51.228;22.498;2024-01-15T01:33:17;-0.40;1.00
23149;DHT22;11743;51.228;22.498;2024-01-15T01:33:39;-0.40;1.00
23149;DHT22;11743;51.228;22.498;2024-01-15T01:34:02;-0.50;1.00
23149;DHT22;11743;51.228;22.498;2024-01-15T01:34:24;-0.50;1.00
23149;DHT22;11743;51.228;22.498;2024-01-15T01:34:46;-0.40;1.00
23149;DHT22;11743;51.228;22.498;2024-01-15T01:35:08;-0.40;1.00
23149;DHT22;11743;51.228;22.498;2024-01-15T01:35:30;-0.40;1.00
23149;DHT22;11743;51.228;22.498;2024-01-15T01:35:52;-0.50;1.00
23149;DHT22;11743;51.228;22.498;2024-01-15T01:36:14;-0.40;1.00
23149;DHT22;11743;51.228;22.498;2024-01-15T01:36:36;-0.40;1.00
23149;DHT22;11743;51.228;22.498;2024-01-15T01:36:58;-0.40;1.00
23149;DHT22;11743;51.228;22.498;2024-01-15T01:37:20;-0.40;1.00
23149;DHT22;11743;51.228;22.498;2024-01-15T01:37:43;-0.40;1.00
23149;DHT22;11743;51.228;22.498;2024-01-15T01:38:05;-0.50;1.00
23149;DHT22;11743;51.228;22.498;2024-01-15T01:38:27;-0.40;1.00
23149;DHT22;11743;51.228;22.498;2024-01-15T01:38:49;-0.40;1.00
23149;DHT22;11743;51.228;22.498;2024-01-15T01:39:11;-0.40;1.00
23149;DHT22;11743;51.228;22.498;2024-01-15T01:39:33;-0.40;1.00
23149;DHT22;11743;51.228;22.498;2024-01-15T01:39:55;-0.50;1.00
23149;DHT22;11743;51.228;22.498;2024-01-15T01:40:17;-0.40;1.00
23149;DHT22;11743;51.228;22.498;2024-01-15T01:40:39;-0.40;1.00
23149;DHT22;11743;51.228;22.498;2024-01-15T01:41:01;-0.40;1.00
23149;DHT22;11743;51.228;22.498;2024-01-15T01:41:23;-0.40;1.00
23149;DHT22;11743;51.228;22.498;2024-01-15T01:41:45;-0.40;1.00
23149;DHT22;11743;51.228;22.498;2024-01-15T01:42:07;-0.50;1.00
23149;DHT22;11743;51.228;22.498;2024-01-15T01:42:29;-0.40;1.00
23149;DHT22;11743;51.228;22.498;2024-01-15T01:42:51;-0.50;1.00
23149;DHT22;11743;51.228;22.498;2024-01-15T01:43:13;-0.40;1.00
23149;DHT22;11743;51.228;22.498;2024-01-15T01:43:35;-0.40;1.00
23149;DHT22;11743;51.228;22.498;2024-01-15T01:43:57;-0.40;1.00
23149;DHT22;11743;51.228;22.498;2024-01-15T01:44:19;-0.40;1.00
23149;DHT22;11743;51.228;22.498;2024-01-15T01:44:41;-0.50;1.00
23149;DHT22;11743;51.228;22.498;2024-01-15T01:45:03;-0.40;1.00
23149;DHT22;11743;51.228;22.498;2024-01-15T01:45:25;-0.40;1.00
23149;DHT22;11743;51.228;22.498;2024-01-15T01:45:47;-0.50;1.00
23149;DHT22;11743;51.228;22.498;2024-01-15T01:46:09;-0.50;1.00
23149;DHT22;11743;51.228;22.498;2024-01-15T01:46:31;-0.40;1.00
23149;DHT22;11743;51.228;22.498;2024-01-15T01:46:53;-0.50;1.00
23149;DHT22;11743;51.228;22.498;2024-01-15T01:47:15;-0.40;1.00
23149;DHT22;11743;51.228;22.498;2024-01-15T01:47:37;-0.40;1.00
23149;DHT22;11743;51.228;22.498;2024-01-15T01:48:00;-0.40;1.00
23149;DHT22;11743;51.228;22.498;2024-01-15T01:48:24;-0.50;1.00
23149;DHT22;11743;51.228;22.498;2024-01-15T01:48:47;-0.40;1.00
23149;DHT22;11743;51.228;22.498;2024-01-15T01:49:10;-0.40;1.00
23149;DHT22;11743;51.228;22.498;2024-01-15T01:49:32;-0.40;1.00
23149;DHT22;11743;51.228;22.498;2024-01-15T01:49:57;-0.40;1.00
23149;DHT22;11743;51.228;22.498;2024-01-15T01:50:19;-0.40;1.00
23149;DHT22;11743;51.228;22.498;2024-01-15T01:50:41;-0.40;1.00
23149;DHT22;11743;51.228;22.498;2024-01-15T01:51:04;-0.40;1.00
23149;DHT22;11743;51.228;22.498;2024-01-15T01:51:26;-0.40;1.00
23149;DHT22;11743;51.228;22.498;2024-01-15T01:51:48;-0.40;1.00
23149;DHT22;11743;51.228;22.498;2024-01-15T01:52:10;-0.40;1.00
23149;DHT22;11743;51.228;22.498;2024-01-15T01:52:32;-0.40;1.00
23149;DHT22;11743;51.228;22.498;2024-01-15T01:52:55;-0.40;1.00
23149;DHT22;11743;51.228;22.498;2024-01-15T01:53:17;-0.40;1.00
23149;DHT22;11743;51.228;22.498;2024-01-15T01:53:39;-0.40;1.00
23149;DHT22;11743;51.228;22.498;2024-01-15T01:54:01;-0.30;1.00
23149;DHT22;11743;51.228;22.498;2024-01-15T01:54:23;-0.50;1.00
23149;DHT22;11743;51.228;22.498;2024-01-15T01:54:45;-0.40;1.00
23149;DHT22;11743;51.228;22.498;2024-01-15T01:55:09;-0.40;1.00
23149;DHT22;11743;51.228;22.498;2024-01-15T01:55:32;-0.40;1.00
23149;DHT22;11743;51.228;22.498;2024-01-15T01:55:56;-0.40;1.00
23149;DHT22;11743;51.228;22.498;2024-01-15T01:56:18;-0.40;1.00
23149;DHT22;11743;51.228;22.498;2024-01-15T01:56:41;-0.50;1.00
23149;DHT22;11743;51.228;22.498;2024-01-15T01:57:05;-0.50;1.00
23149;DHT22;11743;51.228;22.498;2024-01-15T01:57:27;-0.50;1.00
23149;DHT22;11743;51.228;22.498;2024-01-15T01:57:50;-0.50;1.00
23149;DHT22;11743;51.228;22.498;2024-01-15T01:58:12;-0.50;1.00
23149;DHT22;11743;51.228;22.498;2024-01-15T01:58:34;-0.50;1.00
23149;DHT22;11743;51.228;22.498;2024-01-15T01:58:56;-0.50;1.00
23149;DHT22;11743;51.228;22.498;2024-01-15T01:59:18;-0.50;1.00
23149;DHT22;11743;51.228;22.498;2024-01-15T01:59:40;-0.50;1.00
23149;DHT22;11743;51.228;22.498;2024-01-15T02:00:03;-0.50;1.00
23149;DHT22;11743;51.228;22.498;2024-01-15T02:00:26;-0.50;1.00
23149;DHT22;11743;51.228;22.498;2024-01-15T02:00:48;-0.50;1.00
23149;DHT22;11743;51.228;22.498;2024-01-15T02:01:12;-0.50;1.00
23149;DHT22;11743;51.228;22.498;2024-01-15T02:01:34;-0.50;1.00
23149;DHT22;11743;51.228;22.498;2024-01-15T02:01:57;-0.50;99.90
23149;DHT22;11743;51.228;22.498;2024-01-15T02:02:21;-0.50;99.90
23149;DHT22;11743;51.228;22.498;2024-01-15T02:02:43;-0.50;99.90
23149;DHT22;11743;51.228;22.498;2024-01-15T02:03:05;-0.50;99.90
23149;DHT22;11743;51.228;22.498;2024-01-15T02:03:27;-0.50;99.90
23149;DHT22;11743;51.228;22.498;2024-01-15T02:03:50;-0.50;99.90
23149;DHT22;11743;51.228;22.498;2024-01-15T02:04:12;-0.50;99.90
23149;DHT22;11743;51.228;22.498;2024-01-15T02:04:34;-0.50;99.90
23149;DHT22;11743;51.228;22.498;2024-01-15T02:04:58;-0.50;99.90
23149;DHT22;11743;51.228;22.498;2024-01-15T02:05:21;-0.50;99.90
23149;DHT22;11743;51.228;22.498;2024-01-15T02:05:43;-0.50;99.90
23149;DHT22;11743;51.228;22.498;2024-01-15T02:06:08;-0.50;99.90
23149;DHT22;11743;51.228;22.498;2024-01-15T02:06:30;-0.60;99.90
23149;DHT22;11743;51.228;22.498;2024-01-15T02:06:52;-0.50;99.90
23149;DHT22;11743;51.228;22.498;2024-01-15T02:07:14;-0.50;99.90
23149;DHT22;11743;51.228;22.498;2024-01-15T02:07:39;-0.50;99.90
23149;DHT22;11743;51.228;22.498;2024-01-15T02:08:01;-0.50;99.90
23149;DHT22;11743;51.228;22.498;2024-01-15T02:08:23;-0.50;99.90
23149;DHT22;11743;51.228;22.498;2024-01-15T02:08:45;-0.50;99.90
23149;DHT22;11743;51.228;22.498;2024-01-15T02:09:08;-0.50;99.90
23149;DHT22;11743;51.228;22.498;2024-01-15T02:09:30;-0.50;99.90
23149;DHT22;11743;51.228;22.498;2024-01-15T02:09:53;-0.50;99.90
23149;DHT22;11743;51.228;22.498;2024-01-15T02:10:15;-0.50;99.90
23149;DHT22;11743;51.228;22.498;2024-01-15T02:10:37;-0.50;99.90
23149;DHT22;11743;51.228;22.498;2024-01-15T02:10:59;-0.50;99.90
23149;DHT22;11743;51.228;22.498;2024-01-15T02:11:21;-0.60;99.90
23149;DHT22;11743;51.228;22.498;2024-01-15T02:11:43;-0.50;99.90
23149;DHT22;11743;51.228;22.498;2024-01-15T02:12:05;-0.50;99.90
23149;DHT22;11743;51.228;22.498;2024-01-15T02:12:28;-0.60;99.90
23149;DHT22;11743;51.228;22.498;2024-01-15T02:12:49;-0.60;99.90
23149;DHT22;11743;51.228;22.498;2024-01-15T02:13:11;-0.50;99.90
23149;DHT22;11743;51.228;22.498;2024-01-15T02:13:33;-0.60;99.90
23149;DHT22;11743;51.228;22.498;2024-01-15T02:13:55;-0.50;99.90
23149;DHT22;11743;51.228;22.498;2024-01-15T02:14:17;-0.50;99.90
23149;DHT22;11743;51.228;22.498;2024-01-15T02:14:39;-0.50;99.90
23149;DHT22;11743;51.228;22.498;2024-01-15T02:15:01;-0.50;99.90
23149;DHT22;11743;51.228;22.498;2024-01-15T02:15:23;-0.50;99.90
23149;DHT22;11743;51.228;22.498;2024-01-15T02:15:45;-0.50;99.90
23149;DHT22;11743;51.228;22.498;2024-01-15T02:16:07;-0.50;99.90
23149;DHT22;11743;51.228;22.498;2024-01-15T02:16:28;-0.50;99.90
23149;DHT22;11743;51.228;22.498;2024-01-15T02:16:50;-0.50;99.90
23149;DHT22;11743;51.228;22.498;2024-01-15T02:17:12;-0.50;99.90
23149;DHT22;11743;51.228;22.498;2024-01-15T02:17:33;-0.50;99.90
23149;DHT22;11743;51.228;22.498;2024-01-15T02:17:59;-0.50;99.90
23149;DHT22;11743;51.228;22.498;2024-01-15T02:18:21;-0.50;99.90
23149;DHT22;11743;51.228;22.498;2024-01-15T02:18:45;-0.50;99.90
23149;DHT22;11743;51.228;22.498;2024-01-15T02:19:07;-0.50;99.90